createdAt,value
2018-01-15T00:00:34.941Z,71.79
2018-01-15T00:01:41.154Z,71.74
2018-01-15T00:02:46.892Z,71.76
2018-01-15T00:03:52.616Z,71.73
2018-01-15T00:04:58.389Z,71.68
2018-01-15T00:06:03.793Z,71.57
2018-01-15T00:07:09.557Z,71.35
2018-01-15T00:08:15.461Z,71.28
2018-01-15T00:09:21.210Z,71.18
2018-01-15T00:10:26.951Z,71.16
2018-01-15T00:11:32.715Z,71.02
2018-01-15T00:12:38.491Z,70.82
2018-01-15T00:13:44.217Z,70.77
2018-01-15T00:14:49.966Z,70.69
2018-01-15T00:15:55.742Z,70.61
2018-01-15T00:17:01.492Z,70.48
2018-01-15T00:18:07.295Z,70.34
2018-01-15T00:19:13.026Z,70.18
2018-01-15T00:20:18.785Z,70.08
2018-01-15T00:21:24.524Z,69.99
2018-01-15T00:22:33.107Z,69.96
2018-01-15T00:23:38.869Z,70.00
2018-01-15T00:24:44.616Z,69.91
2018-01-15T00:25:50.370Z,69.91
2018-01-15T00:26:56.887Z,69.89
2018-01-15T00:28:02.645Z,70.19
2018-01-15T00:29:09.172Z,70.24
2018-01-15T00:30:14.938Z,70.27
2018-01-15T00:31:20.660Z,70.31
2018-01-15T00:32:26.401Z,70.31
2018-01-15T00:33:32.133Z,70.45
2018-01-15T00:34:37.901Z,70.51
2018-01-15T00:35:43.631Z,70.49
2018-01-15T00:36:49.373Z,70.55
2018-01-15T00:37:55.099Z,70.55
2018-01-15T00:39:00.837Z,70.72
2018-01-15T00:40:06.599Z,70.93
2018-01-15T00:41:12.324Z,70.85
2018-01-15T00:42:18.080Z,70.94
2018-01-15T00:43:23.835Z,71.05
2018-01-15T00:44:29.600Z,71.04
2018-01-15T00:45:36.134Z,71.07
2018-01-15T00:46:41.856Z,71.24
2018-01-15T00:47:47.605Z,71.34
2018-01-15T00:48:53.392Z,71.38
2018-01-15T00:49:59.927Z,71.41
2018-01-15T00:51:05.702Z,71.47
2018-01-15T00:52:12.203Z,71.53
2018-01-15T00:53:17.931Z,71.52
2018-01-15T00:54:23.683Z,71.55
2018-01-15T00:55:29.430Z,71.54
2018-01-15T00:56:35.184Z,71.48
2018-01-15T00:57:40.954Z,71.46
2018-01-15T00:58:47.463Z,71.29
2018-01-15T00:59:53.200Z,71.38
2018-01-15T01:00:58.942Z,71.40
2018-01-15T01:02:04.392Z,71.25
2018-01-15T01:03:10.135Z,71.23
2018-01-15T01:04:15.888Z,71.26
2018-01-15T01:05:21.643Z,71.28
2018-01-15T01:06:27.395Z,71.29
2018-01-15T01:07:33.926Z,71.30
2018-01-15T01:08:39.656Z,71.22
2018-01-15T01:09:45.392Z,71.07
2018-01-15T01:10:51.163Z,71.04
2018-01-15T01:11:56.892Z,70.97
2018-01-15T01:13:02.677Z,71.08
2018-01-15T01:14:08.431Z,71.06
2018-01-15T01:15:14.169Z,71.05
2018-01-15T01:16:19.916Z,71.03
2018-01-15T01:17:25.706Z,71.05
2018-01-15T01:18:32.265Z,71.06
2018-01-15T01:19:38.013Z,71.05
2018-01-15T01:20:43.796Z,70.98
2018-01-15T01:21:49.725Z,70.96
2018-01-15T01:22:56.247Z,71.00
2018-01-15T01:24:02.008Z,70.77
2018-01-15T01:25:07.749Z,70.73
2018-01-15T01:26:14.248Z,70.71
2018-01-15T01:27:20.036Z,70.75
2018-01-15T01:28:25.790Z,70.66
2018-01-15T01:29:32.324Z,70.70
2018-01-15T01:30:38.056Z,70.71
2018-01-15T01:31:43.802Z,70.73
2018-01-15T01:32:49.316Z,70.68
2018-01-15T01:33:55.054Z,70.70
2018-01-15T01:35:00.831Z,70.54
2018-01-15T01:36:06.565Z,70.46
2018-01-15T01:37:12.291Z,70.27
2018-01-15T01:38:18.024Z,70.29
2018-01-15T01:39:23.760Z,70.27
2018-01-15T01:40:29.543Z,70.41
2018-01-15T01:41:35.294Z,70.33
2018-01-15T01:42:41.791Z,70.28
2018-01-15T01:43:47.551Z,70.06
2018-01-15T01:44:53.373Z,69.81
2018-01-15T01:45:59.154Z,69.53
2018-01-15T01:47:04.890Z,69.26
2018-01-15T01:48:10.639Z,69.10
2018-01-15T01:49:16.390Z,69.06
2018-01-15T01:50:22.143Z,68.92
2018-01-15T01:51:27.908Z,68.51
2018-01-15T01:52:34.439Z,68.46
2018-01-15T01:53:40.186Z,68.43
2018-01-15T01:54:45.907Z,68.42
2018-01-15T01:55:51.646Z,68.41
2018-01-15T01:56:57.396Z,68.23
2018-01-15T01:58:03.151Z,68.12
2018-01-15T01:59:08.891Z,68.11
2018-01-15T02:00:14.630Z,68.06
2018-01-15T02:01:20.384Z,68.13
2018-01-15T02:02:26.164Z,68.07
2018-01-15T02:03:31.911Z,68.04
2018-01-15T02:04:37.685Z,68.00
2018-01-15T02:05:43.427Z,67.83
2018-01-15T02:06:49.170Z,67.68
2018-01-15T02:07:54.970Z,67.84
2018-01-15T02:09:00.727Z,67.75
2018-01-15T02:10:06.483Z,67.70
2018-01-15T02:11:12.212Z,67.62
2018-01-15T02:12:17.979Z,67.70
2018-01-15T02:13:23.756Z,67.79
2018-01-15T02:14:30.252Z,67.87
2018-01-15T02:15:35.976Z,67.98
2018-01-15T02:16:41.704Z,67.95
2018-01-15T02:17:47.429Z,67.90
2018-01-15T02:18:53.944Z,67.97
2018-01-15T02:19:59.453Z,67.97
2018-01-15T02:21:05.191Z,68.11
2018-01-15T02:22:11.225Z,68.29
2018-01-15T02:23:17.060Z,68.50
2018-01-15T02:24:23.254Z,68.76
2018-01-15T02:25:29.007Z,69.01
2018-01-15T02:26:33.836Z,69.26
2018-01-15T02:27:39.587Z,69.48
2018-01-15T02:28:46.085Z,69.73
2018-01-15T02:29:52.615Z,69.86
2018-01-15T02:30:59.127Z,70.02
2018-01-15T02:32:04.871Z,70.16
2018-01-15T02:33:10.634Z,70.27
2018-01-15T02:34:16.365Z,70.34
2018-01-15T02:35:22.152Z,70.43
2018-01-15T02:36:28.669Z,70.52
2018-01-15T02:37:34.447Z,70.68
2018-01-15T02:38:40.198Z,70.77
2018-01-15T02:39:46.716Z,70.92
2018-01-15T02:40:52.518Z,71.02
2018-01-15T02:41:58.284Z,71.17
2018-01-15T02:43:04.035Z,71.32
2018-01-15T02:44:09.760Z,71.39
2018-01-15T02:45:15.500Z,71.40
2018-01-15T02:46:21.277Z,71.61
2018-01-15T02:47:27.033Z,71.67
2018-01-15T02:48:33.554Z,71.68
2018-01-15T02:49:39.277Z,71.68
2018-01-15T02:50:45.045Z,71.78
2018-01-15T02:51:50.802Z,71.84
2018-01-15T02:52:56.528Z,72.00
2018-01-15T02:54:02.274Z,72.09
2018-01-15T02:55:08.000Z,72.13
2018-01-15T02:56:13.728Z,72.12
2018-01-15T02:57:19.506Z,72.13
2018-01-15T02:58:25.267Z,72.22
2018-01-15T02:59:31.783Z,72.25
2018-01-15T03:00:37.539Z,72.21
2018-01-15T03:01:43.260Z,72.29
2018-01-15T03:02:49.034Z,72.40
2018-01-15T03:03:55.533Z,72.44
2018-01-15T03:05:01.306Z,72.49
2018-01-15T03:06:07.046Z,72.54
2018-01-15T03:07:12.779Z,72.69
2018-01-15T03:08:18.555Z,72.82
2018-01-15T03:09:25.048Z,72.88
2018-01-15T03:10:31.849Z,72.97
2018-01-15T03:11:37.583Z,73.01
2018-01-15T03:12:43.335Z,73.05
2018-01-15T03:13:49.115Z,73.05
2018-01-15T03:14:54.860Z,73.11
2018-01-15T03:16:00.598Z,73.25
2018-01-15T03:17:06.347Z,73.28
2018-01-15T03:18:13.594Z,73.28
2018-01-15T03:19:19.386Z,73.30
2018-01-15T03:20:25.868Z,73.29
2018-01-15T03:21:31.600Z,73.43
2018-01-15T03:22:37.361Z,73.53
2018-01-15T03:23:43.114Z,73.56
2018-01-15T03:24:48.872Z,73.62
2018-01-15T03:25:55.368Z,73.61
2018-01-15T03:27:01.104Z,73.73
2018-01-15T03:28:07.602Z,73.78
2018-01-15T03:29:13.632Z,73.87
2018-01-15T03:30:19.380Z,73.96
2018-01-15T03:31:25.430Z,74.10
2018-01-15T03:32:31.174Z,74.20
2018-01-15T03:33:36.917Z,74.24
2018-01-15T03:34:42.659Z,74.35
2018-01-15T03:35:48.466Z,74.40
2018-01-15T03:36:54.951Z,74.45
2018-01-15T03:38:01.016Z,74.45
2018-01-15T03:39:05.868Z,74.40
2018-01-15T03:40:11.612Z,74.56
2018-01-15T03:41:18.186Z,74.62
2018-01-15T03:42:24.694Z,74.53
2018-01-15T03:43:30.608Z,74.46
2018-01-15T03:44:36.359Z,74.57
2018-01-15T03:45:42.109Z,74.63
2018-01-15T03:46:47.894Z,74.68
2018-01-15T03:47:53.617Z,74.69
2018-01-15T03:48:59.369Z,74.70
2018-01-15T03:50:05.164Z,74.77
2018-01-15T03:51:10.907Z,74.82
2018-01-15T03:52:16.676Z,74.89
2018-01-15T03:53:22.400Z,75.06
2018-01-15T03:54:28.129Z,75.20
2018-01-15T03:55:33.869Z,75.17
2018-01-15T03:56:39.588Z,75.10
2018-01-15T03:57:46.145Z,75.11
2018-01-15T03:58:52.664Z,75.11
2018-01-15T03:59:58.699Z,75.22
2018-01-15T04:01:04.446Z,75.32
2018-01-15T04:02:10.183Z,75.34
2018-01-15T04:03:15.943Z,75.39
2018-01-15T04:04:21.679Z,75.37
2018-01-15T04:05:27.415Z,75.42
2018-01-15T04:06:33.151Z,75.44
2018-01-15T04:07:38.965Z,75.49
2018-01-15T04:08:46.059Z,75.56
2018-01-15T04:09:52.027Z,75.66
2018-01-15T04:10:57.548Z,75.70
2018-01-15T04:12:03.317Z,75.70
2018-01-15T04:13:09.104Z,75.79
2018-01-15T04:14:14.856Z,75.86
2018-01-15T04:15:20.595Z,75.90
2018-01-15T04:16:26.367Z,75.83
2018-01-15T04:17:32.112Z,75.89
2018-01-15T04:18:37.860Z,75.81
2018-01-15T04:19:43.601Z,75.80
2018-01-15T04:20:49.349Z,75.93
2018-01-15T04:21:55.091Z,76.00
2018-01-15T04:23:00.812Z,76.03
2018-01-15T04:24:06.532Z,76.00
2018-01-15T04:25:12.298Z,76.06
2018-01-15T04:26:18.060Z,76.04
2018-01-15T04:27:23.790Z,76.03
2018-01-15T04:28:29.584Z,76.09
2018-01-15T04:29:35.318Z,76.16
2018-01-15T04:30:41.088Z,76.23
2018-01-15T04:31:46.827Z,76.26
2018-01-15T04:32:52.661Z,76.22
2018-01-15T04:33:58.371Z,76.27
2018-01-15T04:35:04.624Z,76.26
2018-01-15T04:36:10.211Z,76.24
2018-01-15T04:37:15.942Z,76.25
2018-01-15T04:38:21.679Z,76.30
2018-01-15T04:39:28.207Z,76.49
2018-01-15T04:40:33.946Z,76.47
2018-01-15T04:41:40.482Z,76.50
2018-01-15T04:42:46.227Z,76.56
2018-01-15T04:43:51.964Z,76.51
2018-01-15T04:44:59.192Z,76.54
2018-01-15T04:46:04.934Z,76.68
2018-01-15T04:47:10.712Z,76.79
2018-01-15T04:48:16.444Z,76.92
2018-01-15T04:49:22.175Z,76.91
2018-01-15T04:50:27.716Z,76.96
2018-01-15T04:51:33.480Z,77.06
2018-01-15T04:52:39.220Z,77.10
2018-01-15T04:53:44.960Z,77.12
2018-01-15T04:54:50.683Z,77.13
2018-01-15T04:55:56.898Z,77.17
2018-01-15T04:57:02.912Z,77.20
2018-01-15T04:58:08.349Z,77.22
2018-01-15T04:59:14.119Z,77.25
2018-01-15T05:00:19.854Z,77.27
2018-01-15T05:01:25.643Z,77.30
2018-01-15T05:02:31.378Z,77.26
2018-01-15T05:03:37.120Z,77.31
2018-01-15T05:04:42.844Z,77.45
2018-01-15T05:05:48.590Z,77.49
2018-01-15T05:06:54.418Z,77.55
2018-01-15T05:08:00.338Z,77.64
2018-01-15T05:09:07.141Z,77.58
2018-01-15T05:10:12.976Z,77.58
2018-01-15T05:11:18.900Z,77.64
2018-01-15T05:12:24.656Z,77.66
2018-01-15T05:13:30.407Z,77.69
2018-01-15T05:14:36.161Z,77.73
2018-01-15T05:15:41.881Z,77.80
2018-01-15T05:16:47.662Z,77.84
2018-01-15T05:17:53.393Z,77.83
2018-01-15T05:18:59.128Z,77.83
2018-01-15T05:20:04.880Z,77.82
2018-01-15T05:21:10.847Z,77.89
2018-01-15T05:22:16.584Z,77.92
2018-01-15T05:23:22.352Z,77.87
2018-01-15T05:24:28.937Z,77.93
2018-01-15T05:25:34.708Z,78.04
2018-01-15T05:26:40.462Z,78.01
2018-01-15T05:27:45.894Z,77.98
2018-01-15T05:28:51.645Z,77.92
2018-01-15T05:29:57.392Z,77.91
2018-01-15T05:31:03.152Z,77.95
2018-01-15T05:32:09.648Z,78.02
2018-01-15T05:33:16.029Z,78.16
2018-01-15T05:34:21.780Z,78.23
2018-01-15T05:35:27.496Z,78.27
2018-01-15T05:36:33.283Z,78.27
2018-01-15T05:37:39.804Z,78.18
2018-01-15T05:38:45.544Z,78.08
2018-01-15T05:39:51.265Z,78.06
2018-01-15T05:40:57.004Z,78.13
2018-01-15T05:42:02.791Z,78.05
2018-01-15T05:43:08.580Z,78.05
2018-01-15T05:44:14.499Z,78.09
2018-01-15T05:45:21.130Z,78.16
2018-01-15T05:46:28.287Z,78.14
2018-01-15T05:47:34.085Z,78.08
2018-01-15T05:48:40.642Z,78.07
2018-01-15T05:49:47.162Z,78.12
2018-01-15T05:50:52.964Z,78.08
2018-01-15T05:51:58.696Z,77.97
2018-01-15T05:53:06.183Z,77.90
2018-01-15T05:54:11.935Z,77.97
2018-01-15T05:55:17.746Z,78.04
2018-01-15T05:56:24.445Z,78.07
2018-01-15T05:57:30.306Z,78.09
2018-01-15T05:58:36.343Z,78.20
2018-01-15T05:59:42.095Z,78.28
2018-01-15T06:00:47.819Z,78.21
2018-01-15T06:01:53.560Z,78.15
2018-01-15T06:02:59.295Z,78.08
2018-01-15T06:04:05.054Z,78.02
2018-01-15T06:05:11.133Z,78.08
2018-01-15T06:06:17.674Z,78.08
2018-01-15T06:07:23.435Z,78.11
2018-01-15T06:08:29.186Z,78.17
2018-01-15T06:09:34.963Z,78.18
2018-01-15T06:10:41.800Z,78.20
2018-01-15T06:11:47.536Z,78.24
2018-01-15T06:12:54.096Z,78.21
2018-01-15T06:14:01.347Z,78.31
2018-01-15T06:15:07.115Z,78.34
2018-01-15T06:16:12.843Z,78.40
2018-01-15T06:17:18.587Z,78.35
2018-01-15T06:18:24.335Z,78.41
2018-01-15T06:19:30.159Z,78.48
2018-01-15T06:20:35.911Z,78.60
2018-01-15T06:21:41.640Z,78.66
2018-01-15T06:22:47.413Z,78.66
2018-01-15T06:23:52.934Z,78.68
2018-01-15T06:24:58.744Z,78.66
2018-01-15T06:26:04.514Z,78.75
2018-01-15T06:27:10.266Z,78.77
2018-01-15T06:28:15.988Z,78.80
2018-01-15T06:29:21.743Z,78.76
2018-01-15T06:30:27.522Z,78.74
2018-01-15T06:31:34.058Z,78.81
2018-01-15T06:32:39.806Z,78.84
2018-01-15T06:33:45.548Z,78.85
2018-01-15T06:34:51.264Z,78.92
2018-01-15T06:35:56.988Z,78.96
2018-01-15T06:37:02.782Z,78.91
2018-01-15T06:38:09.357Z,78.96
2018-01-15T06:39:15.077Z,79.04
2018-01-15T06:40:20.807Z,79.11
2018-01-15T06:41:26.531Z,79.10
2018-01-15T06:42:32.288Z,79.04
2018-01-15T06:43:38.026Z,79.06
2018-01-15T06:44:43.749Z,79.16
2018-01-15T06:45:49.490Z,79.21
2018-01-15T06:46:55.243Z,79.27
2018-01-15T06:48:00.992Z,79.25
2018-01-15T06:49:06.570Z,79.21
2018-01-15T06:50:12.320Z,79.21
2018-01-15T06:51:18.061Z,79.29
2018-01-15T06:52:23.809Z,79.28
2018-01-15T06:53:29.626Z,79.29
2018-01-15T06:54:35.353Z,79.27
2018-01-15T06:55:41.852Z,79.12
2018-01-15T06:56:47.612Z,79.09
2018-01-15T06:57:53.368Z,79.10
2018-01-15T06:58:59.138Z,79.09
2018-01-15T07:00:04.747Z,79.06
2018-01-15T07:01:10.495Z,79.04
2018-01-15T07:02:17.111Z,79.07
2018-01-15T07:03:22.844Z,79.06
2018-01-15T07:04:28.688Z,79.02
2018-01-15T07:05:34.442Z,79.06
2018-01-15T07:06:40.184Z,79.09
2018-01-15T07:07:45.948Z,79.07
2018-01-15T07:08:51.732Z,79.04
2018-01-15T07:09:58.253Z,79.06
2018-01-15T07:11:04.007Z,79.07
2018-01-15T07:12:09.724Z,79.01
2018-01-15T07:13:15.471Z,79.09
2018-01-15T07:14:21.198Z,79.10
2018-01-15T07:15:26.983Z,79.12
2018-01-15T07:16:33.505Z,79.02
2018-01-15T07:17:39.045Z,78.95
2018-01-15T07:18:44.783Z,78.82
2018-01-15T07:19:50.548Z,78.79
2018-01-15T07:20:56.331Z,78.74
2018-01-15T07:22:02.068Z,78.69
2018-01-15T07:23:08.584Z,78.67
2018-01-15T07:24:15.095Z,78.63
2018-01-15T07:25:20.861Z,78.59
2018-01-15T07:26:26.613Z,78.49
2018-01-15T07:27:32.427Z,78.44
2018-01-15T07:28:38.173Z,78.37
2018-01-15T07:29:43.909Z,78.32
2018-01-15T07:30:49.635Z,78.36
2018-01-15T07:31:55.453Z,78.32
2018-01-15T07:33:01.970Z,78.32
2018-01-15T07:34:07.597Z,78.37
2018-01-15T07:35:13.324Z,78.40
2018-01-15T07:36:19.067Z,78.37
2018-01-15T07:37:24.815Z,78.28
2018-01-15T07:38:30.590Z,78.26
2018-01-15T07:39:36.589Z,78.31
2018-01-15T07:40:43.150Z,78.28
2018-01-15T07:41:48.903Z,78.24
2018-01-15T07:42:54.736Z,78.20
2018-01-15T07:44:00.509Z,78.19
2018-01-15T07:45:06.259Z,78.10
2018-01-15T07:46:11.973Z,78.06
2018-01-15T07:47:17.729Z,78.08
2018-01-15T07:48:23.503Z,77.96
2018-01-15T07:49:29.241Z,77.91
2018-01-15T07:50:34.978Z,77.89
2018-01-15T07:51:40.725Z,77.70
2018-01-15T07:52:46.479Z,77.69
2018-01-15T07:53:53.028Z,77.61
2018-01-15T07:54:58.783Z,77.44
2018-01-15T07:56:04.940Z,77.34
2018-01-15T07:57:11.440Z,77.31
2018-01-15T07:58:17.469Z,77.29
2018-01-15T07:59:23.253Z,77.20
2018-01-15T08:00:29.009Z,77.00
2018-01-15T08:01:34.760Z,76.93
2018-01-15T08:02:40.511Z,76.82
2018-01-15T08:03:47.031Z,76.63
2018-01-15T08:04:52.800Z,76.44
2018-01-15T08:05:59.340Z,76.26
2018-01-15T08:07:05.094Z,76.11
2018-01-15T08:08:10.840Z,75.98
2018-01-15T08:09:16.592Z,75.81
2018-01-15T08:10:23.163Z,75.65
2018-01-15T08:11:29.657Z,75.62
2018-01-15T08:12:35.400Z,75.60
2018-01-15T08:13:41.129Z,75.60
2018-01-15T08:14:46.883Z,75.46
2018-01-15T08:15:52.699Z,75.19
2018-01-15T08:16:58.428Z,74.96
2018-01-15T08:18:04.932Z,74.77
2018-01-15T08:19:10.679Z,74.74
2018-01-15T08:20:16.411Z,74.51
2018-01-15T08:21:22.166Z,74.36
2018-01-15T08:22:27.896Z,74.27
2018-01-15T08:23:33.643Z,74.25
2018-01-15T08:24:39.404Z,74.12
2018-01-15T08:25:46.643Z,74.07
2018-01-15T08:26:52.415Z,73.99
2018-01-15T08:27:58.137Z,73.70
2018-01-15T08:29:03.887Z,73.81
2018-01-15T08:30:09.644Z,73.78
2018-01-15T08:31:15.403Z,73.93
2018-01-15T08:32:21.934Z,73.81
2018-01-15T08:33:27.687Z,73.80
2018-01-15T08:34:33.434Z,73.72
2018-01-15T08:35:39.163Z,73.76
2018-01-15T08:36:44.894Z,73.91
2018-01-15T08:37:50.660Z,73.78
2018-01-15T08:38:56.393Z,73.73
2018-01-15T08:40:02.214Z,73.59
2018-01-15T08:41:07.969Z,73.46
2018-01-15T08:42:14.196Z,73.35
2018-01-15T08:43:19.938Z,73.13
2018-01-15T08:44:25.684Z,73.01
2018-01-15T08:45:31.427Z,73.06
2018-01-15T08:46:37.164Z,73.05
2018-01-15T08:47:42.932Z,73.09
2018-01-15T08:48:48.695Z,73.00
2018-01-15T08:49:55.331Z,72.83
2018-01-15T08:51:01.184Z,72.67
2018-01-15T08:52:07.136Z,72.66
2018-01-15T08:53:12.889Z,72.50
2018-01-15T08:54:19.382Z,72.28
2018-01-15T08:55:25.116Z,72.17
2018-01-15T08:56:30.879Z,71.85
2018-01-15T08:57:36.634Z,71.73
2018-01-15T08:58:42.397Z,71.56
2018-01-15T08:59:48.132Z,71.18
2018-01-15T09:00:53.887Z,70.99
2018-01-15T09:01:59.622Z,70.65
2018-01-15T09:03:05.425Z,70.37
2018-01-15T09:04:11.208Z,69.87
2018-01-15T09:05:17.124Z,69.72
2018-01-15T09:06:22.927Z,69.21
2018-01-15T09:07:30.346Z,69.12
2018-01-15T09:08:36.168Z,68.86
2018-01-15T09:09:42.106Z,68.58
2018-01-15T09:10:47.855Z,68.32
2018-01-15T09:11:53.607Z,68.09
2018-01-15T09:12:59.340Z,67.91
2018-01-15T09:14:05.130Z,67.72
2018-01-15T09:15:10.860Z,67.34
2018-01-15T09:16:19.595Z,67.26
2018-01-15T09:17:25.403Z,67.44
2018-01-15T09:18:31.145Z,67.21
2018-01-15T09:19:36.906Z,66.80
2018-01-15T09:20:44.163Z,66.59
2018-01-15T09:21:49.914Z,66.68
2018-01-15T09:22:55.630Z,66.41
2018-01-15T09:24:01.396Z,66.27
2018-01-15T09:25:07.160Z,66.40
2018-01-15T09:26:13.659Z,66.03
2018-01-15T09:27:19.595Z,66.08
2018-01-15T09:28:25.340Z,65.54
2018-01-15T09:29:31.075Z,65.32
2018-01-15T09:30:36.834Z,64.86
2018-01-15T09:31:42.602Z,64.78
2018-01-15T09:32:48.336Z,64.43
2018-01-15T09:33:54.091Z,63.50
2018-01-15T09:34:59.885Z,63.31
2018-01-15T09:36:05.642Z,63.01
2018-01-15T09:37:11.360Z,62.97
2018-01-15T09:38:17.111Z,62.87
2018-01-15T09:39:22.840Z,62.97
2018-01-15T09:40:28.578Z,62.92
2018-01-15T09:41:35.112Z,62.65
2018-01-15T09:42:40.823Z,62.51
2018-01-15T09:43:46.592Z,62.94
2018-01-15T09:44:52.340Z,62.96
2018-01-15T09:45:58.086Z,63.00
2018-01-15T09:47:03.833Z,62.96
2018-01-15T09:48:10.328Z,63.13
2018-01-15T09:49:16.199Z,63.02
2018-01-15T09:50:21.688Z,62.64
2018-01-15T09:51:27.425Z,62.21
2018-01-15T09:52:33.936Z,61.73
2018-01-15T09:53:39.683Z,61.64
2018-01-15T09:54:45.395Z,61.09
2018-01-15T09:55:51.143Z,61.16
2018-01-15T09:56:56.881Z,61.22
2018-01-15T09:58:02.645Z,61.00
2018-01-15T09:59:08.377Z,60.69
2018-01-15T10:00:14.178Z,60.17
2018-01-15T10:01:19.909Z,59.83
2018-01-15T10:02:26.419Z,59.50
2018-01-15T10:03:32.168Z,59.54
2018-01-15T10:04:37.884Z,59.90
2018-01-15T10:05:43.935Z,60.26
2018-01-15T10:06:49.879Z,60.49
2018-01-15T10:07:55.630Z,60.46
2018-01-15T10:09:01.386Z,60.27
2018-01-15T10:10:07.891Z,60.31
2018-01-15T10:11:14.375Z,60.30
2018-01-15T10:12:20.136Z,60.14
2018-01-15T10:13:25.873Z,59.82
2018-01-15T10:14:31.636Z,59.43
2018-01-15T10:15:38.901Z,58.90
2018-01-15T10:16:44.619Z,58.48
2018-01-15T10:17:50.349Z,58.55
2018-01-15T10:18:56.094Z,58.11
2018-01-15T10:20:01.840Z,58.06
2018-01-15T10:21:07.582Z,57.82
2018-01-15T10:22:13.312Z,57.74
2018-01-15T10:23:19.044Z,57.64
2018-01-15T10:24:24.765Z,57.37
2018-01-15T10:25:31.308Z,57.49
2018-01-15T10:26:37.059Z,57.58
2018-01-15T10:27:42.799Z,57.47
2018-01-15T10:28:48.538Z,56.97
2018-01-15T10:29:55.058Z,56.94
2018-01-15T10:31:00.844Z,56.72
2018-01-15T10:32:06.572Z,56.72
2018-01-15T10:33:13.104Z,56.72
2018-01-15T10:34:18.839Z,56.42
2018-01-15T10:35:24.563Z,56.28
2018-01-15T10:36:30.320Z,56.00
2018-01-15T10:37:36.046Z,56.24
2018-01-15T10:38:41.904Z,56.43
2018-01-15T10:39:47.642Z,56.60
2018-01-15T10:40:53.369Z,56.54
2018-01-15T10:41:59.506Z,57.06
2018-01-15T10:43:05.990Z,57.40
2018-01-15T10:44:11.723Z,57.59
2018-01-15T10:45:17.468Z,57.59
2018-01-15T10:46:23.198Z,57.37
2018-01-15T10:47:28.939Z,57.43
2018-01-15T10:48:34.660Z,57.53
2018-01-15T10:49:41.142Z,57.32
2018-01-15T10:50:46.873Z,57.25
2018-01-15T10:51:52.635Z,57.32
2018-01-15T10:52:58.454Z,57.25
2018-01-15T10:54:04.941Z,56.79
2018-01-15T10:55:10.670Z,56.91
2018-01-15T10:56:16.410Z,57.06
2018-01-15T10:57:22.163Z,57.02
2018-01-15T10:58:27.914Z,56.91
2018-01-15T10:59:33.647Z,56.88
2018-01-15T11:00:57.904Z,56.58
2018-01-15T11:02:03.661Z,56.45
2018-01-15T11:03:09.373Z,56.62
2018-01-15T11:04:15.880Z,56.86
2018-01-15T11:05:21.615Z,56.81
2018-01-15T11:06:27.367Z,56.73
2018-01-15T11:07:33.095Z,56.54
2018-01-15T11:08:38.843Z,56.19
2018-01-15T11:09:44.615Z,55.97
2018-01-15T11:10:50.332Z,55.97
2018-01-15T11:11:56.072Z,56.04
2018-01-15T11:13:01.819Z,56.22
2018-01-15T11:14:08.341Z,56.26
2018-01-15T11:15:13.884Z,56.30
2018-01-15T11:16:19.604Z,56.28
2018-01-15T11:17:25.342Z,55.82
2018-01-15T11:18:31.062Z,55.54
2018-01-15T11:20:42.666Z,55.49
2018-01-15T11:21:49.342Z,55.56
2018-01-15T11:22:55.087Z,55.47
2018-01-15T11:24:00.813Z,55.32
2018-01-15T11:25:07.330Z,55.28
2018-01-15T11:26:12.754Z,55.36
2018-01-15T11:27:18.590Z,55.16
2018-01-15T11:28:24.312Z,55.24
2018-01-15T11:29:29.867Z,55.25
2018-01-15T11:30:35.590Z,55.09
2018-01-15T11:31:41.390Z,54.75
2018-01-15T11:32:47.902Z,54.42
2018-01-15T11:33:53.625Z,54.15
2018-01-15T11:34:59.395Z,54.12
2018-01-15T11:36:05.120Z,54.04
2018-01-15T11:37:10.977Z,53.88
2018-01-15T11:38:16.717Z,53.84
2018-01-15T11:39:22.460Z,53.94
2018-01-15T11:40:28.182Z,53.82
2018-01-15T11:41:33.896Z,53.90
2018-01-15T11:42:40.400Z,54.18
2018-01-15T11:43:46.126Z,54.18
2018-01-15T11:44:51.843Z,54.32
2018-01-15T11:45:58.353Z,54.02
2018-01-15T11:47:04.068Z,54.06
2018-01-15T11:48:10.052Z,54.20
2018-01-15T11:49:15.777Z,54.18
2018-01-15T11:50:21.574Z,54.13
2018-01-15T11:51:27.318Z,54.35
2018-01-15T11:52:33.060Z,54.46
2018-01-15T11:53:38.804Z,54.61
2018-01-15T11:54:44.758Z,54.86
2018-01-15T11:55:50.473Z,55.10
2018-01-15T11:56:56.219Z,55.21
2018-01-15T11:58:01.976Z,54.98
2018-01-15T11:59:07.744Z,54.96
2018-01-15T12:00:13.469Z,55.04
2018-01-15T12:01:19.214Z,55.16
2018-01-15T12:02:24.936Z,55.39
2018-01-15T12:03:30.654Z,55.37
2018-01-15T12:04:37.188Z,55.58
2018-01-15T12:05:43.665Z,55.52
2018-01-15T12:06:49.946Z,55.69
2018-01-15T12:07:55.668Z,56.11
2018-01-15T12:09:02.150Z,56.30
2018-01-15T12:10:08.016Z,56.54
2018-01-15T12:11:13.753Z,56.90
2018-01-15T12:12:19.485Z,56.80
2018-01-15T12:13:25.204Z,56.99
2018-01-15T12:14:31.702Z,56.87
2018-01-15T12:15:37.468Z,56.87
2018-01-15T12:16:43.246Z,56.80
2018-01-15T12:17:48.973Z,56.66
2018-01-15T12:18:55.460Z,56.73
2018-01-15T12:20:01.178Z,56.74
2018-01-15T12:21:07.729Z,56.98
2018-01-15T12:22:14.229Z,56.89
2018-01-15T12:23:19.970Z,56.74
2018-01-15T12:24:25.706Z,56.65
2018-01-15T12:25:31.444Z,56.54
2018-01-15T12:26:37.971Z,56.40
2018-01-15T12:27:44.461Z,56.32
2018-01-15T12:28:50.211Z,56.16
2018-01-15T12:29:55.947Z,55.92
2018-01-15T12:31:01.689Z,55.64
2018-01-15T12:32:07.450Z,55.50
2018-01-15T12:33:13.194Z,55.44
2018-01-15T12:34:18.929Z,55.45
2018-01-15T12:35:24.682Z,55.49
2018-01-15T12:36:30.441Z,55.59
2018-01-15T12:37:36.215Z,55.64
2018-01-15T12:38:41.979Z,55.66
2018-01-15T12:39:47.391Z,55.07
2018-01-15T12:40:53.896Z,55.23
2018-01-15T12:41:59.622Z,55.01
2018-01-15T12:43:05.370Z,55.23
2018-01-15T12:44:11.097Z,55.25
2018-01-15T12:45:17.018Z,55.29
2018-01-15T12:46:23.487Z,55.28
2018-01-15T12:47:29.227Z,55.15
2018-01-15T12:48:34.967Z,54.76
2018-01-15T12:49:40.689Z,54.59
2018-01-15T12:50:47.168Z,54.74
2018-01-15T12:51:52.911Z,54.84
2018-01-15T12:52:58.659Z,55.12
2018-01-15T12:54:04.419Z,55.46
2018-01-15T12:55:10.135Z,55.71
2018-01-15T12:56:15.856Z,56.16
2018-01-15T12:57:22.364Z,56.45
2018-01-15T12:58:28.104Z,56.58
2018-01-15T12:59:33.888Z,56.95
2018-01-15T13:00:40.391Z,57.12
2018-01-15T13:01:46.135Z,57.17
2018-01-15T13:02:51.871Z,57.27
2018-01-15T13:03:57.596Z,57.45
2018-01-15T13:05:03.347Z,57.60
2018-01-15T13:06:08.407Z,57.83
2018-01-15T13:07:30.863Z,57.94
2018-01-15T13:10:18.860Z,58.67
2018-01-15T13:11:24.567Z,58.83
2018-01-15T13:12:30.297Z,59.01
2018-01-15T13:13:36.804Z,58.91
2018-01-15T13:14:42.527Z,59.00
2018-01-15T13:15:48.272Z,59.08
2018-01-15T13:16:54.005Z,59.07
2018-01-15T13:17:59.747Z,59.18
2018-01-15T13:19:05.493Z,59.15
2018-01-15T13:20:11.203Z,59.10
2018-01-15T13:21:17.713Z,59.13
2018-01-15T13:22:23.442Z,59.14
2018-01-15T13:23:29.177Z,59.25
2018-01-15T13:24:34.927Z,59.09
2018-01-15T13:25:40.632Z,58.93
2018-01-15T13:26:46.388Z,59.05
2018-01-15T13:27:52.114Z,59.10
2018-01-15T13:28:58.615Z,59.16
2018-01-15T13:30:04.051Z,59.20
2018-01-15T13:31:09.974Z,59.33
2018-01-15T13:32:15.742Z,59.35
2018-01-15T13:33:21.464Z,59.31
2018-01-15T13:34:27.184Z,59.30
2018-01-15T13:35:32.573Z,59.22
2018-01-15T13:36:38.327Z,59.26
2018-01-15T13:37:44.858Z,59.18
2018-01-15T13:38:50.822Z,59.07
2018-01-15T13:39:56.542Z,58.79
2018-01-15T13:41:02.278Z,58.75
2018-01-15T13:42:08.023Z,58.60
2018-01-15T13:43:13.769Z,58.62
2018-01-15T13:44:19.482Z,58.74
2018-01-15T13:45:25.225Z,58.71
2018-01-15T13:46:31.011Z,58.86
2018-01-15T13:47:36.746Z,58.88
2018-01-15T13:48:42.494Z,58.90
2018-01-15T13:49:48.998Z,59.01
2018-01-15T13:50:54.739Z,59.06
2018-01-15T13:52:00.570Z,59.14
2018-01-15T13:53:07.130Z,59.40
2018-01-15T13:54:12.907Z,59.44
2018-01-15T13:55:18.645Z,59.61
2018-01-15T13:56:24.389Z,59.79
2018-01-15T13:57:30.112Z,59.86
2018-01-15T13:58:35.878Z,59.92
2018-01-15T13:59:41.642Z,60.13
2018-01-15T14:00:47.413Z,60.31
2018-01-15T14:01:53.894Z,60.39
2018-01-15T14:02:59.720Z,60.45
2018-01-15T14:04:06.210Z,60.59
2018-01-15T14:05:12.022Z,60.73
2018-01-15T14:06:17.807Z,60.69
2018-01-15T14:07:23.524Z,60.69
2018-01-15T14:08:29.267Z,60.51
2018-01-15T14:09:35.007Z,60.42
2018-01-15T14:10:40.775Z,60.44
2018-01-15T14:11:46.519Z,60.39